sensor_id;sensor_type;location;lat;lon;timestamp;P1;durP1;ratioP1;P2;durP2;ratioP2
26113;SDS011;13966;48.828;9.064;2023-05-10T00:00:13;0.50;;;0.50;;
26113;SDS011;13966;48.828;9.064;2023-05-10T00:02:39;0.88;;;0.43;;
26113;SDS011;13966;48.828;9.064;2023-05-10T00:05:06;0.38;;;0.38;;
26113;SDS011;13966;48.828;9.064;2023-05-10T00:07:32;0.40;;;0.40;;
26113;SDS011;13966;48.828;9.064;2023-05-10T00:09:58;2.55;;;0.40;;
26113;SDS011;13966;48.828;9.064;2023-05-10T00:12:24;1.38;;;0.20;;
26113;SDS011;13966;48.828;9.064;2023-05-10T00:14:50;2.58;;;0.30;;
26113;SDS011;13966;48.828;9.064;2023-05-10T00:17:16;1.48;;;0.30;;
26113;SDS011;13966;48.828;9.064;2023-05-10T00:19:42;1.45;;;0.15;;
26113;SDS011;13966;48.828;9.064;2023-05-10T00:22:08;0.65;;;0.20;;
26113;SDS011;13966;48.828;9.064;2023-05-10T00:24:35;1.20;;;0.30;;
26113;SDS011;13966;48.828;9.064;2023-05-10T00:27:01;0.40;;;0.28;;
26113;SDS011;13966;48.828;9.064;2023-05-10T00:29:28;1.30;;;0.17;;
26113;SDS011;13966;48.828;9.064;2023-05-10T00:31:54;1.55;;;0.30;;
26113;SDS011;13966;48.828;9.064;2023-05-10T00:34:21;0.20;;;0.20;;
26113;SDS011;13966;48.828;9.064;2023-05-10T00:36:47;0.70;;;0.30;;
26113;SDS011;13966;48.828;9.064;2023-05-10T00:39:13;0.30;;;0.30;;
26113;SDS011;13966;48.828;9.064;2023-05-10T00:41:39;0.20;;;0.20;;
26113;SDS011;13966;48.828;9.064;2023-05-10T00:44:05;2.30;;;0.30;;
26113;SDS011;13966;48.828;9.064;2023-05-10T00:46:31;1.40;;;0.43;;
26113;SDS011;13966;48.828;9.064;2023-05-10T00:48:57;0.30;;;0.30;;
26113;SDS011;13966;48.828;9.064;2023-05-10T00:51:23;1.85;;;0.35;;
26113;SDS011;13966;48.828;9.064;2023-05-10T00:53:50;0.32;;;0.32;;
26113;SDS011;13966;48.828;9.064;2023-05-10T00:56:16;1.95;;;0.85;;
26113;SDS011;13966;48.828;9.064;2023-05-10T00:58:43;0.70;;;0.35;;
26113;SDS011;13966;48.828;9.064;2023-05-10T01:01:09;0.80;;;0.45;;
26113;SDS011;13966;48.828;9.064;2023-05-10T01:03:35;0.40;;;0.40;;
26113;SDS011;13966;48.828;9.064;2023-05-10T01:06:01;0.60;;;0.60;;
26113;SDS011;13966;48.828;9.064;2023-05-10T01:08:28;0.90;;;0.70;;
26113;SDS011;13966;48.828;9.064;2023-05-10T01:10:54;1.83;;;0.80;;
26113;SDS011;13966;48.828;9.064;2023-05-10T01:13:36;0.50;;;0.50;;
26113;SDS011;13966;48.828;9.064;2023-05-10T01:16:03;0.40;;;0.40;;
26113;SDS011;13966;48.828;9.064;2023-05-10T01:18:30;1.58;;;0.50;;
26113;SDS011;13966;48.828;9.064;2023-05-10T01:26:07;0.70;;;0.60;;
26113;SDS011;13966;48.828;9.064;2023-05-10T01:34:07;0.75;;;0.70;;
26113;SDS011;13966;48.828;9.064;2023-05-10T01:39:09;0.70;;;0.70;;
26113;SDS011;13966;48.828;9.064;2023-05-10T01:46:38;1.38;;;0.75;;
26113;SDS011;13966;48.828;9.064;2023-05-10T01:49:09;2.78;;;0.60;;
26113;SDS011;13966;48.828;9.064;2023-05-10T01:51:42;1.05;;;0.73;;
26113;SDS011;13966;48.828;9.064;2023-05-10T01:54:11;0.70;;;0.70;;
26113;SDS011;13966;48.828;9.064;2023-05-10T01:56:38;3.63;;;0.80;;
26113;SDS011;13966;48.828;9.064;2023-05-10T01:59:06;0.80;;;0.80;;
26113;SDS011;13966;48.828;9.064;2023-05-10T02:01:34;0.85;;;0.85;;
26113;SDS011;13966;48.828;9.064;2023-05-10T02:04:02;0.65;;;0.65;;
26113;SDS011;13966;48.828;9.064;2023-05-10T02:06:28;1.45;;;0.80;;
26113;SDS011;13966;48.828;9.064;2023-05-10T02:08:55;2.58;;;0.98;;
26113;SDS011;13966;48.828;9.064;2023-05-10T02:11:22;0.68;;;0.68;;
26113;SDS011;13966;48.828;9.064;2023-05-10T02:13:49;1.60;;;0.70;;
26113;SDS011;13966;48.828;9.064;2023-05-10T02:16:16;1.13;;;0.75;;
26113;SDS011;13966;48.828;9.064;2023-05-10T02:18:42;3.40;;;1.00;;
26113;SDS011;13966;48.828;9.064;2023-05-10T02:21:09;0.70;;;0.70;;
26113;SDS011;13966;48.828;9.064;2023-05-10T02:23:36;1.45;;;0.80;;
26113;SDS011;13966;48.828;9.064;2023-05-10T02:26:02;3.25;;;0.90;;
26113;SDS011;13966;48.828;9.064;2023-05-10T02:28:30;0.80;;;0.80;;
26113;SDS011;13966;48.828;9.064;2023-05-10T02:30:57;1.95;;;1.17;;
26113;SDS011;13966;48.828;9.064;2023-05-10T02:33:24;2.42;;;1.00;;
26113;SDS011;13966;48.828;9.064;2023-05-10T02:35:50;0.80;;;0.80;;
26113;SDS011;13966;48.828;9.064;2023-05-10T02:38:16;0.82;;;0.82;;
26113;SDS011;13966;48.828;9.064;2023-05-10T02:40:44;1.40;;;0.98;;
26113;SDS011;13966;48.828;9.064;2023-05-10T02:43:12;1.17;;;1.08;;
26113;SDS011;13966;48.828;9.064;2023-05-10T02:45:39;2.38;;;1.00;;
26113;SDS011;13966;48.828;9.064;2023-05-10T02:48:05;2.00;;;1.30;;
26113;SDS011;13966;48.828;9.064;2023-05-10T02:50:32;2.17;;;1.02;;
26113;SDS011;13966;48.828;9.064;2023-05-10T02:53:03;3.72;;;1.23;;
26113;SDS011;13966;48.828;9.064;2023-05-10T02:55:32;3.40;;;1.33;;
26113;SDS011;13966;48.828;9.064;2023-05-10T02:58:01;1.50;;;1.40;;
26113;SDS011;13966;48.828;9.064;2023-05-10T03:00:27;3.90;;;1.58;;
26113;SDS011;13966;48.828;9.064;2023-05-10T03:02:53;1.83;;;1.40;;
26113;SDS011;13966;48.828;9.064;2023-05-10T03:05:20;1.38;;;1.27;;
26113;SDS011;13966;48.828;9.064;2023-05-10T03:07:46;1.40;;;1.30;;
26113;SDS011;13966;48.828;9.064;2023-05-10T03:10:12;2.38;;;1.55;;
26113;SDS011;13966;48.828;9.064;2023-05-10T03:13:01;2.22;;;1.10;;
26113;SDS011;13966;48.828;9.064;2023-05-10T03:15:42;3.05;;;1.13;;
26113;SDS011;13966;48.828;9.064;2023-05-10T03:18:18;1.10;;;1.00;;
26113;SDS011;13966;48.828;9.064;2023-05-10T03:20:47;1.85;;;1.10;;
26113;SDS011;13966;48.828;9.064;2023-05-10T03:23:26;1.10;;;0.90;;
26113;SDS011;13966;48.828;9.064;2023-05-10T03:25:53;2.58;;;0.90;;
26113;SDS011;13966;48.828;9.064;2023-05-10T03:28:19;1.48;;;1.15;;
26113;SDS011;13966;48.828;9.064;2023-05-10T03:30:46;3.38;;;1.30;;
26113;SDS011;13966;48.828;9.064;2023-05-10T03:33:12;3.03;;;1.52;;
26113;SDS011;13966;48.828;9.064;2023-05-10T03:35:39;1.50;;;1.40;;
26113;SDS011;13966;48.828;9.064;2023-05-10T03:38:05;1.88;;;1.40;;
26113;SDS011;13966;48.828;9.064;2023-05-10T03:40:31;1.58;;;1.40;;
26113;SDS011;13966;48.828;9.064;2023-05-10T03:42:57;2.20;;;1.35;;
26113;SDS011;13966;48.828;9.064;2023-05-10T03:45:23;1.48;;;1.38;;
26113;SDS011;13966;48.828;9.064;2023-05-10T03:47:49;2.50;;;1.55;;
26113;SDS011;13966;48.828;9.064;2023-05-10T03:50:15;1.52;;;1.40;;
26113;SDS011;13966;48.828;9.064;2023-05-10T03:52:42;4.32;;;1.52;;
26113;SDS011;13966;48.828;9.064;2023-05-10T03:55:08;3.47;;;1.60;;
26113;SDS011;13966;48.828;9.064;2023-05-10T03:57:34;1.50;;;1.40;;
26113;SDS011;13966;48.828;9.064;2023-05-10T04:00:00;3.65;;;1.73;;
26113;SDS011;13966;48.828;9.064;2023-05-10T04:02:26;1.98;;;1.70;;
26113;SDS011;13966;48.828;9.064;2023-05-10T04:04:52;2.45;;;1.58;;
26113;SDS011;13966;48.828;9.064;2023-05-10T04:07:18;2.03;;;1.25;;
26113;SDS011;13966;48.828;9.064;2023-05-10T04:09:44;1.75;;;1.40;;
26113;SDS011;13966;48.828;9.064;2023-05-10T04:12:10;2.97;;;1.50;;
26113;SDS011;13966;48.828;9.064;2023-05-10T04:14:36;1.90;;;1.30;;
26113;SDS011;13966;48.828;9.064;2023-05-10T04:17:02;1.40;;;1.30;;
26113;SDS011;13966;48.828;9.064;2023-05-10T04:19:31;2.60;;;1.33;;
26113;SDS011;13966;48.828;9.064;2023-05-10T04:21:58;1.83;;;1.52;;
26113;SDS011;13966;48.828;9.064;2023-05-10T04:24:24;1.60;;;1.35;;
26113;SDS011;13966;48.828;9.064;2023-05-10T04:26:51;5.28;;;1.60;;
26113;SDS011;13966;48.828;9.064;2023-05-10T04:29:17;1.35;;;1.25;;
26113;SDS011;13966;48.828;9.064;2023-05-10T04:31:43;3.53;;;1.10;;
26113;SDS011;13966;48.828;9.064;2023-05-10T04:34:09;1.90;;;1.15;;
26113;SDS011;13966;48.828;9.064;2023-05-10T04:36:35;2.35;;;1.35;;
26113;SDS011;13966;48.828;9.064;2023-05-10T04:39:02;3.00;;;1.17;;
26113;SDS011;13966;48.828;9.064;2023-05-10T04:41:28;4.07;;;1.17;;
26113;SDS011;13966;48.828;9.064;2023-05-10T04:43:54;1.27;;;1.10;;
26113;SDS011;13966;48.828;9.064;2023-05-10T04:46:20;1.10;;;1.00;;
26113;SDS011;13966;48.828;9.064;2023-05-10T04:48:46;1.55;;;1.20;;
26113;SDS011;13966;48.828;9.064;2023-05-10T04:51:12;3.58;;;1.20;;
26113;SDS011;13966;48.828;9.064;2023-05-10T04:53:38;2.17;;;1.10;;
26113;SDS011;13966;48.828;9.064;2023-05-10T04:56:04;1.30;;;1.10;;
26113;SDS011;13966;48.828;9.064;2023-05-10T04:58:30;1.13;;;1.00;;
26113;SDS011;13966;48.828;9.064;2023-05-10T05:00:57;1.52;;;1.10;;
26113;SDS011;13966;48.828;9.064;2023-05-10T05:03:22;1.95;;;1.15;;
26113;SDS011;13966;48.828;9.064;2023-05-10T05:05:48;2.35;;;1.17;;
26113;SDS011;13966;48.828;9.064;2023-05-10T05:08:14;1.33;;;1.00;;
26113;SDS011;13966;48.828;9.064;2023-05-10T05:10:40;1.50;;;0.93;;
26113;SDS011;13966;48.828;9.064;2023-05-10T05:13:06;1.08;;;0.90;;
26113;SDS011;13966;48.828;9.064;2023-05-10T05:15:32;2.25;;;1.02;;
26113;SDS011;13966;48.828;9.064;2023-05-10T05:17:58;2.22;;;1.52;;
26113;SDS011;13966;48.828;9.064;2023-05-10T05:20:25;3.47;;;1.30;;
26113;SDS011;13966;48.828;9.064;2023-05-10T05:22:51;1.30;;;0.90;;
26113;SDS011;13966;48.828;9.064;2023-05-10T05:25:17;1.25;;;1.10;;
26113;SDS011;13966;48.828;9.064;2023-05-10T05:27:42;6.20;;;1.30;;
26113;SDS011;13966;48.828;9.064;2023-05-10T05:30:09;3.08;;;1.00;;
26113;SDS011;13966;48.828;9.064;2023-05-10T05:32:35;2.53;;;0.90;;
26113;SDS011;13966;48.828;9.064;2023-05-10T05:35:01;2.80;;;1.20;;
26113;SDS011;13966;48.828;9.064;2023-05-10T05:37:27;6.22;;;1.20;;
26113;SDS011;13966;48.828;9.064;2023-05-10T05:39:53;3.47;;;1.10;;
26113;SDS011;13966;48.828;9.064;2023-05-10T05:42:19;2.08;;;1.20;;
26113;SDS011;13966;48.828;9.064;2023-05-10T05:44:45;1.60;;;0.98;;
26113;SDS011;13966;48.828;9.064;2023-05-10T05:47:11;2.30;;;1.30;;
26113;SDS011;13966;48.828;9.064;2023-05-10T05:49:37;1.50;;;1.05;;
26113;SDS011;13966;48.828;9.064;2023-05-10T05:52:04;2.38;;;1.20;;
26113;SDS011;13966;48.828;9.064;2023-05-10T05:54:30;2.25;;;1.10;;
26113;SDS011;13966;48.828;9.064;2023-05-10T05:56:57;1.88;;;1.15;;
26113;SDS011;13966;48.828;9.064;2023-05-10T05:59:23;3.03;;;1.25;;
26113;SDS011;13966;48.828;9.064;2023-05-10T06:01:49;3.08;;;1.20;;
26113;SDS011;13966;48.828;9.064;2023-05-10T06:04:15;1.20;;;1.10;;
26113;SDS011;13966;48.828;9.064;2023-05-10T06:06:41;1.83;;;1.10;;
26113;SDS011;13966;48.828;9.064;2023-05-10T06:09:07;1.75;;;1.00;;
26113;SDS011;13966;48.828;9.064;2023-05-10T06:11:33;2.05;;;1.05;;
26113;SDS011;13966;48.828;9.064;2023-05-10T06:13:59;3.60;;;1.17;;
26113;SDS011;13966;48.828;9.064;2023-05-10T06:16:26;4.10;;;1.27;;
26113;SDS011;13966;48.828;9.064;2023-05-10T06:18:52;4.10;;;1.30;;
26113;SDS011;13966;48.828;9.064;2023-05-10T06:21:18;2.63;;;1.10;;
26113;SDS011;13966;48.828;9.064;2023-05-10T06:23:44;2.53;;;1.55;;
26113;SDS011;13966;48.828;9.064;2023-05-10T06:26:10;1.70;;;1.20;;
26113;SDS011;13966;48.828;9.064;2023-05-10T06:28:36;3.53;;;1.10;;
26113;SDS011;13966;48.828;9.064;2023-05-10T06:31:04;2.67;;;1.20;;
26113;SDS011;13966;48.828;9.064;2023-05-10T06:33:30;2.47;;;1.30;;
26113;SDS011;13966;48.828;9.064;2023-05-10T06:35:56;2.60;;;1.30;;
26113;SDS011;13966;48.828;9.064;2023-05-10T06:38:22;5.50;;;1.42;;
26113;SDS011;13966;48.828;9.064;2023-05-10T06:40:48;5.43;;;1.02;;
26113;SDS011;13966;48.828;9.064;2023-05-10T06:43:14;1.30;;;1.13;;
26113;SDS011;13966;48.828;9.064;2023-05-10T06:45:40;2.13;;;1.23;;
26113;SDS011;13966;48.828;9.064;2023-05-10T06:48:06;6.20;;;1.25;;
26113;SDS011;13966;48.828;9.064;2023-05-10T06:50:32;1.90;;;1.00;;
26113;SDS011;13966;48.828;9.064;2023-05-10T06:52:59;1.90;;;0.90;;
26113;SDS011;13966;48.828;9.064;2023-05-10T06:55:25;3.97;;;1.40;;
26113;SDS011;13966;48.828;9.064;2023-05-10T06:57:51;3.53;;;1.50;;
26113;SDS011;13966;48.828;9.064;2023-05-10T07:00:18;3.45;;;1.35;;
26113;SDS011;13966;48.828;9.064;2023-05-10T07:02:44;4.28;;;1.17;;
26113;SDS011;13966;48.828;9.064;2023-05-10T07:05:10;1.50;;;1.02;;
26113;SDS011;13966;48.828;9.064;2023-05-10T07:07:36;2.08;;;1.17;;
26113;SDS011;13966;48.828;9.064;2023-05-10T07:10:02;1.88;;;1.20;;
26113;SDS011;13966;48.828;9.064;2023-05-10T07:12:28;2.88;;;0.90;;
26113;SDS011;13966;48.828;9.064;2023-05-10T07:14:54;2.55;;;1.10;;
26113;SDS011;13966;48.828;9.064;2023-05-10T07:17:20;2.15;;;1.08;;
26113;SDS011;13966;48.828;9.064;2023-05-10T07:19:46;4.00;;;1.10;;
26113;SDS011;13966;48.828;9.064;2023-05-10T07:22:12;1.00;;;0.80;;
26113;SDS011;13966;48.828;9.064;2023-05-10T07:24:38;2.88;;;1.10;;
26113;SDS011;13966;48.828;9.064;2023-05-10T07:27:05;6.35;;;1.35;;
26113;SDS011;13966;48.828;9.064;2023-05-10T07:29:31;1.20;;;1.02;;
26113;SDS011;13966;48.828;9.064;2023-05-10T07:31:57;2.90;;;1.17;;
26113;SDS011;13966;48.828;9.064;2023-05-10T07:34:23;3.33;;;0.95;;
26113;SDS011;13966;48.828;9.064;2023-05-10T07:36:49;2.30;;;1.17;;
26113;SDS011;13966;48.828;9.064;2023-05-10T07:39:15;1.98;;;1.20;;
26113;SDS011;13966;48.828;9.064;2023-05-10T07:41:41;2.55;;;0.90;;
26113;SDS011;13966;48.828;9.064;2023-05-10T07:44:07;2.22;;;1.10;;
26113;SDS011;13966;48.828;9.064;2023-05-10T07:46:33;1.95;;;1.00;;
26113;SDS011;13966;48.828;9.064;2023-05-10T07:48:59;3.78;;;0.82;;
26113;SDS011;13966;48.828;9.064;2023-05-10T07:51:25;1.20;;;0.88;;
26113;SDS011;13966;48.828;9.064;2023-05-10T07:53:52;3.90;;;1.00;;
26113;SDS011;13966;48.828;9.064;2023-05-10T07:56:20;1.67;;;0.88;;
26113;SDS011;13966;48.828;9.064;2023-05-10T07:58:46;2.85;;;0.63;;
26113;SDS011;13966;48.828;9.064;2023-05-10T08:01:12;1.85;;;0.90;;
26113;SDS011;13966;48.828;9.064;2023-05-10T08:03:39;1.00;;;0.70;;
26113;SDS011;13966;48.828;9.064;2023-05-10T08:06:05;1.08;;;0.57;;
26113;SDS011;13966;48.828;9.064;2023-05-10T08:08:31;1.35;;;0.55;;
26113;SDS011;13966;48.828;9.064;2023-05-10T08:10:57;2.22;;;0.70;;
26113;SDS011;13966;48.828;9.064;2023-05-10T08:13:23;3.45;;;0.70;;
26113;SDS011;13966;48.828;9.064;2023-05-10T08:15:49;0.47;;;0.30;;
26113;SDS011;13966;48.828;9.064;2023-05-10T08:18:17;1.35;;;0.57;;
26113;SDS011;13966;48.828;9.064;2023-05-10T08:20:43;1.88;;;0.80;;
26113;SDS011;13966;48.828;9.064;2023-05-10T08:23:09;2.15;;;0.43;;
26113;SDS011;13966;48.828;9.064;2023-05-10T08:25:36;2.30;;;0.50;;
26113;SDS011;13966;48.828;9.064;2023-05-10T08:28:02;0.57;;;0.50;;
26113;SDS011;13966;48.828;9.064;2023-05-10T08:30:28;0.82;;;0.47;;
26113;SDS011;13966;48.828;9.064;2023-05-10T08:32:54;1.83;;;0.40;;
26113;SDS011;13966;48.828;9.064;2023-05-10T08:35:20;0.90;;;0.50;;
26113;SDS011;13966;48.828;9.064;2023-05-10T08:37:46;1.92;;;0.55;;
26113;SDS011;13966;48.828;9.064;2023-05-10T08:40:12;0.90;;;0.43;;
26113;SDS011;13966;48.828;9.064;2023-05-10T08:42:39;0.70;;;0.40;;
26113;SDS011;13966;48.828;9.064;2023-05-10T08:45:07;1.30;;;0.35;;
26113;SDS011;13966;48.828;9.064;2023-05-10T08:47:34;2.25;;;0.25;;
26113;SDS011;13966;48.828;9.064;2023-05-10T08:50:01;0.47;;;0.20;;
26113;SDS011;13966;48.828;9.064;2023-05-10T08:52:28;1.85;;;0.47;;
26113;SDS011;13966;48.828;9.064;2023-05-10T08:54:55;2.83;;;0.40;;
26113;SDS011;13966;48.828;9.064;2023-05-10T08:57:22;2.55;;;0.50;;
26113;SDS011;13966;48.828;9.064;2023-05-10T08:59:48;4.30;;;0.55;;
26113;SDS011;13966;48.828;9.064;2023-05-10T09:02:14;2.63;;;0.60;;
26113;SDS011;13966;48.828;9.064;2023-05-10T09:04:40;1.95;;;0.40;;
26113;SDS011;13966;48.828;9.064;2023-05-10T09:07:06;1.65;;;0.30;;
26113;SDS011;13966;48.828;9.064;2023-05-10T09:09:32;1.05;;;0.47;;
26113;SDS011;13966;48.828;9.064;2023-05-10T09:11:59;2.55;;;0.40;;
26113;SDS011;13966;48.828;9.064;2023-05-10T09:14:25;0.47;;;0.30;;
26113;SDS011;13966;48.828;9.064;2023-05-10T09:16:51;0.32;;;0.30;;
26113;SDS011;13966;48.828;9.064;2023-05-10T09:19:19;2.58;;;0.40;;
26113;SDS011;13966;48.828;9.064;2023-05-10T09:21:45;1.15;;;0.40;;
26113;SDS011;13966;48.828;9.064;2023-05-10T09:24:11;3.45;;;0.50;;
26113;SDS011;13966;48.828;9.064;2023-05-10T09:26:45;0.77;;;0.40;;
26113;SDS011;13966;48.828;9.064;2023-05-10T09:29:12;1.20;;;0.30;;
26113;SDS011;13966;48.828;9.064;2023-05-10T09:31:51;0.55;;;0.40;;
26113;SDS011;13966;48.828;9.064;2023-05-10T09:34:20;0.85;;;0.50;;
26113;SDS011;13966;48.828;9.064;2023-05-10T09:36:53;1.50;;;0.68;;
26113;SDS011;13966;48.828;9.064;2023-05-10T09:39:20;2.67;;;0.55;;
26113;SDS011;13966;48.828;9.064;2023-05-10T09:41:46;2.20;;;0.35;;
26113;SDS011;13966;48.828;9.064;2023-05-10T09:44:16;1.58;;;0.30;;
26113;SDS011;13966;48.828;9.064;2023-05-10T09:46:49;3.45;;;0.50;;
26113;SDS011;13966;48.828;9.064;2023-05-10T09:49:15;5.63;;;1.05;;
26113;SDS011;13966;48.828;9.064;2023-05-10T09:51:41;3.83;;;0.82;;
26113;SDS011;13966;48.828;9.064;2023-05-10T09:54:11;2.53;;;0.43;;
26113;SDS011;13966;48.828;9.064;2023-05-10T09:56:38;5.13;;;0.70;;
26113;SDS011;13966;48.828;9.064;2023-05-10T09:59:05;1.17;;;0.63;;
26113;SDS011;13966;48.828;9.064;2023-05-10T10:01:32;0.90;;;0.40;;
26113;SDS011;13966;48.828;9.064;2023-05-10T10:03:58;6.82;;;0.88;;
26113;SDS011;13966;48.828;9.064;2023-05-10T10:06:24;8.18;;;0.65;;
26113;SDS011;13966;48.828;9.064;2023-05-10T10:08:51;0.85;;;0.35;;
26113;SDS011;13966;48.828;9.064;2023-05-10T10:11:18;2.75;;;0.40;;
26113;SDS011;13966;48.828;9.064;2023-05-10T10:13:44;2.45;;;0.50;;
26113;SDS011;13966;48.828;9.064;2023-05-10T10:16:10;0.70;;;0.30;;
26113;SDS011;13966;48.828;9.064;2023-05-10T10:18:36;0.50;;;0.40;;
26113;SDS011;13966;48.828;9.064;2023-05-10T10:21:08;0.30;;;0.20;;
26113;SDS011;13966;48.828;9.064;2023-05-10T10:23:34;2.15;;;0.80;;
26113;SDS011;13966;48.828;9.064;2023-05-10T10:26:01;1.45;;;0.70;;
26113;SDS011;13966;48.828;9.064;2023-05-10T10:28:51;1.70;;;0.60;;
26113;SDS011;13966;48.828;9.064;2023-05-10T10:31:23;2.72;;;0.50;;
26113;SDS011;13966;48.828;9.064;2023-05-10T10:36:16;7.75;;;0.55;;
26113;SDS011;13966;48.828;9.064;2023-05-10T10:41:26;4.10;;;0.40;;
26113;SDS011;13966;48.828;9.064;2023-05-10T10:46:58;1.30;;;0.40;;
26113;SDS011;13966;48.828;9.064;2023-05-10T10:49:23;2.17;;;0.28;;
26113;SDS011;13966;48.828;9.064;2023-05-10T10:54:33;2.47;;;0.35;;
26113;SDS011;13966;48.828;9.064;2023-05-10T10:57:10;1.83;;;0.60;;
26113;SDS011;13966;48.828;9.064;2023-05-10T10:59:41;1.52;;;0.30;;
26113;SDS011;13966;48.828;9.064;2023-05-10T11:02:07;1.00;;;0.40;;
26113;SDS011;13966;48.828;9.064;2023-05-10T11:04:43;3.03;;;0.77;;
26113;SDS011;13966;48.828;9.064;2023-05-10T11:07:17;1.67;;;0.45;;
26113;SDS011;13966;48.828;9.064;2023-05-10T11:09:43;1.63;;;0.50;;
26113;SDS011;13966;48.828;9.064;2023-05-10T11:12:10;1.85;;;0.40;;
26113;SDS011;13966;48.828;9.064;2023-05-10T11:14:36;0.50;;;0.28;;
26113;SDS011;13966;48.828;9.064;2023-05-10T11:17:02;0.88;;;0.30;;
26113;SDS011;13966;48.828;9.064;2023-05-10T11:20:06;2.92;;;0.52;;
26113;SDS011;13966;48.828;9.064;2023-05-10T11:22:48;1.65;;;0.30;;
26113;SDS011;13966;48.828;9.064;2023-05-10T11:25:27;1.65;;;0.22;;
26113;SDS011;13966;48.828;9.064;2023-05-10T11:27:54;2.15;;;0.60;;
26113;SDS011;13966;48.828;9.064;2023-05-10T11:30:20;3.80;;;0.40;;
26113;SDS011;13966;48.828;9.064;2023-05-10T11:32:46;2.00;;;0.70;;
26113;SDS011;13966;48.828;9.064;2023-05-10T11:35:12;1.52;;;0.47;;
26113;SDS011;13966;48.828;9.064;2023-05-10T11:37:38;1.95;;;0.50;;
26113;SDS011;13966;48.828;9.064;2023-05-10T11:40:08;1.98;;;0.65;;
26113;SDS011;13966;48.828;9.064;2023-05-10T11:42:35;4.32;;;0.80;;
26113;SDS011;13966;48.828;9.064;2023-05-10T11:45:01;0.93;;;0.57;;
26113;SDS011;13966;48.828;9.064;2023-05-10T11:47:27;2.92;;;0.88;;
26113;SDS011;13966;48.828;9.064;2023-05-10T11:49:54;1.30;;;0.50;;
26113;SDS011;13966;48.828;9.064;2023-05-10T11:52:19;4.95;;;0.85;;
26113;SDS011;13966;48.828;9.064;2023-05-10T11:54:52;2.75;;;0.70;;
26113;SDS011;13966;48.828;9.064;2023-05-10T11:57:19;2.75;;;0.70;;
26113;SDS011;13966;48.828;9.064;2023-05-10T11:59:46;2.83;;;0.68;;
26113;SDS011;13966;48.828;9.064;2023-05-10T12:02:15;1.48;;;0.80;;
26113;SDS011;13966;48.828;9.064;2023-05-10T12:04:41;2.45;;;0.80;;
26113;SDS011;13966;48.828;9.064;2023-05-10T12:07:07;3.13;;;1.00;;
26113;SDS011;13966;48.828;9.064;2023-05-10T12:09:33;3.75;;;0.80;;
26113;SDS011;13966;48.828;9.064;2023-05-10T12:11:59;3.42;;;0.70;;
26113;SDS011;13966;48.828;9.064;2023-05-10T12:14:25;2.97;;;0.60;;
26113;SDS011;13966;48.828;9.064;2023-05-10T12:16:51;2.55;;;0.68;;
26113;SDS011;13966;48.828;9.064;2023-05-10T12:19:18;2.95;;;0.55;;
26113;SDS011;13966;48.828;9.064;2023-05-10T12:21:48;1.67;;;0.63;;
26113;SDS011;13966;48.828;9.064;2023-05-10T12:24:14;7.38;;;0.90;;
26113;SDS011;13966;48.828;9.064;2023-05-10T12:26:45;1.33;;;0.50;;
26113;SDS011;13966;48.828;9.064;2023-05-10T12:29:11;1.60;;;0.50;;
26113;SDS011;13966;48.828;9.064;2023-05-10T12:31:54;1.65;;;0.60;;
26113;SDS011;13966;48.828;9.064;2023-05-10T12:34:24;1.13;;;0.43;;
26113;SDS011;13966;48.828;9.064;2023-05-10T12:36:54;4.18;;;0.95;;
26113;SDS011;13966;48.828;9.064;2023-05-10T12:39:20;1.98;;;0.75;;
26113;SDS011;13966;48.828;9.064;2023-05-10T12:41:46;2.72;;;0.90;;
26113;SDS011;13966;48.828;9.064;2023-05-10T12:44:12;1.65;;;0.57;;
26113;SDS011;13966;48.828;9.064;2023-05-10T12:46:38;2.25;;;0.63;;
26113;SDS011;13966;48.828;9.064;2023-05-10T12:49:04;3.30;;;0.70;;
26113;SDS011;13966;48.828;9.064;2023-05-10T12:51:30;2.15;;;0.70;;
26113;SDS011;13966;48.828;9.064;2023-05-10T12:53:56;2.13;;;0.60;;
26113;SDS011;13966;48.828;9.064;2023-05-10T12:56:22;2.20;;;0.88;;
26113;SDS011;13966;48.828;9.064;2023-05-10T12:58:48;0.90;;;0.38;;
26113;SDS011;13966;48.828;9.064;2023-05-10T13:01:14;2.80;;;0.77;;
26113;SDS011;13966;48.828;9.064;2023-05-10T13:03:40;2.28;;;0.50;;
26113;SDS011;13966;48.828;9.064;2023-05-10T13:06:08;2.38;;;0.50;;
26113;SDS011;13966;48.828;9.064;2023-05-10T13:08:34;0.90;;;0.50;;
26113;SDS011;13966;48.828;9.064;2023-05-10T13:11:00;2.58;;;0.65;;
26113;SDS011;13966;48.828;9.064;2023-05-10T13:13:26;1.52;;;0.60;;
26113;SDS011;13966;48.828;9.064;2023-05-10T13:15:52;1.42;;;0.77;;
26113;SDS011;13966;48.828;9.064;2023-05-10T13:18:19;2.90;;;0.65;;
26113;SDS011;13966;48.828;9.064;2023-05-10T13:20:45;3.33;;;0.70;;
26113;SDS011;13966;48.828;9.064;2023-05-10T13:23:11;3.45;;;0.93;;
26113;SDS011;13966;48.828;9.064;2023-05-10T13:25:37;2.08;;;0.82;;
26113;SDS011;13966;48.828;9.064;2023-05-10T13:28:04;1.27;;;0.57;;
26113;SDS011;13966;48.828;9.064;2023-05-10T13:30:30;1.27;;;0.65;;
26113;SDS011;13966;48.828;9.064;2023-05-10T13:32:56;2.80;;;0.82;;
26113;SDS011;13966;48.828;9.064;2023-05-10T13:35:22;2.97;;;0.60;;
26113;SDS011;13966;48.828;9.064;2023-05-10T13:37:48;1.13;;;0.73;;
26113;SDS011;13966;48.828;9.064;2023-05-10T13:40:14;1.00;;;0.55;;
26113;SDS011;13966;48.828;9.064;2023-05-10T13:42:40;2.15;;;0.80;;
26113;SDS011;13966;48.828;9.064;2023-05-10T13:45:06;2.15;;;0.60;;
26113;SDS011;13966;48.828;9.064;2023-05-10T13:47:32;3.60;;;0.68;;
26113;SDS011;13966;48.828;9.064;2023-05-10T13:49:58;3.92;;;0.60;;
26113;SDS011;13966;48.828;9.064;2023-05-10T13:52:28;2.70;;;0.88;;
26113;SDS011;13966;48.828;9.064;2023-05-10T13:54:54;2.95;;;0.60;;
26113;SDS011;13966;48.828;9.064;2023-05-10T13:57:21;2.10;;;0.60;;
26113;SDS011;13966;48.828;9.064;2023-05-10T13:59:47;5.72;;;1.17;;
26113;SDS011;13966;48.828;9.064;2023-05-10T14:02:13;2.13;;;0.75;;
26113;SDS011;13966;48.828;9.064;2023-05-10T14:04:39;3.55;;;0.68;;
26113;SDS011;13966;48.828;9.064;2023-05-10T14:07:05;1.52;;;0.63;;
26113;SDS011;13966;48.828;9.064;2023-05-10T14:09:31;1.90;;;0.60;;
26113;SDS011;13966;48.828;9.064;2023-05-10T14:11:57;1.35;;;0.47;;
26113;SDS011;13966;48.828;9.064;2023-05-10T14:14:23;1.02;;;0.50;;
26113;SDS011;13966;48.828;9.064;2023-05-10T14:16:49;2.03;;;0.65;;
26113;SDS011;13966;48.828;9.064;2023-05-10T14:19:15;2.60;;;0.40;;
26113;SDS011;13966;48.828;9.064;2023-05-10T14:21:42;1.60;;;0.45;;
26113;SDS011;13966;48.828;9.064;2023-05-10T14:24:08;1.45;;;0.50;;
26113;SDS011;13966;48.828;9.064;2023-05-10T14:26:34;2.05;;;0.63;;
26113;SDS011;13966;48.828;9.064;2023-05-10T14:29:00;1.30;;;0.57;;
26113;SDS011;13966;48.828;9.064;2023-05-10T14:31:26;0.88;;;0.40;;
26113;SDS011;13966;48.828;9.064;2023-05-10T14:33:52;1.42;;;0.60;;
26113;SDS011;13966;48.828;9.064;2023-05-10T14:36:18;1.02;;;0.52;;
26113;SDS011;13966;48.828;9.064;2023-05-10T14:38:44;2.60;;;0.90;;
26113;SDS011;13966;48.828;9.064;2023-05-10T14:41:10;1.35;;;0.50;;
26113;SDS011;13966;48.828;9.064;2023-05-10T14:43:39;1.05;;;0.57;;
26113;SDS011;13966;48.828;9.064;2023-05-10T14:46:06;2.30;;;0.50;;
26113;SDS011;13966;48.828;9.064;2023-05-10T14:48:32;2.20;;;0.50;;
26113;SDS011;13966;48.828;9.064;2023-05-10T14:50:58;1.77;;;0.93;;
26113;SDS011;13966;48.828;9.064;2023-05-10T14:53:24;1.67;;;0.40;;
26113;SDS011;13966;48.828;9.064;2023-05-10T14:55:50;4.40;;;0.70;;
26113;SDS011;13966;48.828;9.064;2023-05-10T14:58:16;2.08;;;0.73;;
26113;SDS011;13966;48.828;9.064;2023-05-10T15:00:42;5.32;;;0.68;;
26113;SDS011;13966;48.828;9.064;2023-05-10T15:03:08;0.80;;;0.45;;
26113;SDS011;13966;48.828;9.064;2023-05-10T15:05:34;1.90;;;0.60;;
26113;SDS011;13966;48.828;9.064;2023-05-10T15:08:02;4.70;;;0.60;;
26113;SDS011;13966;48.828;9.064;2023-05-10T15:10:28;1.33;;;0.50;;
26113;SDS011;13966;48.828;9.064;2023-05-10T15:12:54;2.20;;;0.63;;
26113;SDS011;13966;48.828;9.064;2023-05-10T15:15:20;3.08;;;0.60;;